Time;durP1;ratioP1;P1;durP2;ratioP2;P2;SDS_P1;SDS_P2;PMS_P1;PMS_P2;Temp;Humidity;BMP_temperature;BMP_pressure;BME280_temperature;BME280_humidity;BME280_pressure;Samples;Min_cycle;Max_cycle;Signal;HPM_P1;HPM_P2
2023/03/08 04:27:20;;;;;;;30.50;14.20;;;;;;;5.09;92.60;98608.45;79983;1299;3013017;-63
2023/03/08 04:29:47;;;;;;;28.80;13.80;;;;;;;5.79;88.42;98592.46;79118;1302;3014010;-60
2023/03/08 04:32:14;;;;;;;30.20;15.60;;;;;;;5.96;87.31;98595.38;78842;1301;3011575;-63
2023/03/08 04:34:49;;;;;;;31.60;16.10;;;;;;;5.86;86.78;98596.75;77726;1308;3053377;-59
2023/03/08 04:37:18;;;;;;;34.70;17.30;;;;;;;5.80;86.60;98591.02;78866;1304;3011700;-64
2023/03/08 04:39:48;;;;;;;34.20;18.50;;;;;;;5.44;87.43;98591.02;75986;1299;3027692;-59
2023/03/08 04:42:15;;;;;;;33.90;17.90;;;;;;;5.43;87.99;98592.98;79210;1299;3014064;-60
2023/03/08 04:44:42;;;;;;;23.70;12.00;;;;;;;5.30;88.84;98591.05;79089;1299;3011682;-61
2023/03/08 04:47:12;;;;;;;27.10;12.90;;;;;;;5.78;87.68;98591.79;78057;1301;3051551;-59
2023/03/08 04:49:44;;;;;;;30.20;15.20;;;;;;;6.42;85.21;98593.30;79363;1299;3013186;-62
2023/03/08 04:52:11;;;;;;;34.50;18.00;;;;;;;6.42;83.84;98600.43;78155;1304;3052543;-60
2023/03/08 04:54:39;;;;;;;34.70;17.90;;;;;;;6.29;84.19;98599.44;79302;1299;3013233;-62
2023/03/08 04:57:15;;;;;;;48.40;23.30;;;;;;;6.05;84.63;98600.42;77978;1298;3058080;-62
2023/03/08 04:59:43;;;;;;;52.40;24.70;;;;;;;5.90;85.45;98588.70;79420;1298;3013082;-61
2023/03/08 05:02:10;;;;;;;63.60;28.70;;;;;;;5.78;85.88;98591.30;79203;1299;3011545;-63
2023/03/08 05:04:38;;;;;;;64.30;30.20;;;;;;;5.54;86.39;98594.28;78119;1295;3052937;-60
2023/03/08 05:07:08;;;;;;;50.40;20.60;;;;;;;5.42;87.27;98586.80;79662;1301;3013164;-62
2023/03/08 05:09:37;;;;;;;56.40;21.90;;;;;;;5.96;86.21;98585.23;78782;1296;3011855;-61
2023/03/08 05:12:05;;;;;;;61.40;24.90;;;;;;;6.55;83.43;98581.23;79286;1295;3013926;-60
2023/03/08 05:14:54;;;;;;;64.90;28.10;;;;;;;6.49;82.52;98598.52;78048;1295;3049416;-59
2023/03/08 05:17:21;;;;;;;68.40;30.70;;;;;;;6.33;82.61;98600.98;79288;1297;3013613;-65
2023/03/08 05:19:49;;;;;;;77.30;32.30;;;;;;;6.21;83.59;98601.97;79358;1295;3011957;-63
2023/03/08 05:22:21;;;;;;;71.60;31.30;;;;;;;6.07;83.74;98607.29;78033;1299;3053592;-65
2023/03/08 05:24:49;;;;;;;87.70;36.00;;;;;;;5.68;85.08;98611.83;79258;1296;3013489;-60
2023/03/08 05:27:19;;;;;;;84.20;35.00;;;;;;;5.53;86.56;98601.14;78754;1295;3011606;-61
2023/03/08 05:29:46;;;;;;;52.70;22.00;;;;;;;5.58;87.00;98593.27;79443;1295;3013054;-61
2023/03/08 05:32:13;;;;;;;53.00;23.40;;;;;;;6.03;86.34;98598.83;79209;1296;3014030;-60
2023/03/08 05:34:42;;;;;;;53.60;26.50;;;;;;;6.49;83.79;98604.20;78070;1298;3051109;-62
2023/03/08 05:37:12;;;;;;;60.20;27.10;;;;;;;6.47;83.62;98606.08;79313;1301;3011565;-60
2023/03/08 05:39:44;;;;;;;63.70;30.30;;;;;;;6.29;83.85;98608.68;78060;1296;3055131;-62
2023/03/08 05:42:16;;;;;;;60.80;31.30;;;;;;;6.00;85.34;98623.65;79140;1302;3013303;-62
2023/03/08 05:44:45;;;;;;;72.60;32.20;;;;;;;5.51;87.95;98622.42;78080;1296;3049745;-59
2023/03/08 05:47:13;;;;;;;72.90;30.10;;;;;;;5.36;89.57;98623.95;79264;1295;3013205;-62
2023/03/08 05:49:44;;;;;;;36.90;18.70;;;;;;;5.36;90.40;98619.92;78058;1295;3053426;-62
2023/03/08 05:52:11;;;;;;;38.20;18.30;;;;;;;5.74;90.21;98621.41;79227;1301;3013385;-59
2023/03/08 05:54:38;;;;;;;45.10;22.50;;;;;;;5.95;88.90;98619.19;79240;1301;3013226;-60
2023/03/08 05:57:09;;;;;;;45.00;23.20;;;;;;;6.19;88.27;98620.67;78158;1295;3070744;-61
2023/03/08 05:59:37;;;;;;;48.70;23.20;;;;;;;5.98;88.46;98629.10;79529;1294;3013290;-60
2023/03/08 06:02:04;;;;;;;50.90;23.80;;;;;;;5.73;89.71;98640.57;79363;1295;3012991;-61
2023/03/08 06:04:43;;;;;;;40.50;21.90;;;;;;;5.52;91.16;98647.41;78163;1298;3052870;-62
2023/03/08 06:07:14;;;;;;;55.20;26.00;;;;;;;5.50;91.85;98631.54;79389;1296;3012094;-61
2023/03/08 06:09:46;;;;;;;29.90;15.80;;;;;;;5.38;92.80;98615.98;78390;1298;3054441;-61
2023/03/08 06:12:22;;;;;;;39.30;18.00;;;;;;;5.86;91.69;98609.23;78265;1298;3054172;-61
2023/03/08 06:14:53;;;;;;;47.50;23.60;;;;;;;6.39;89.44;98603.73;79341;1298;3011506;-61
2023/03/08 06:17:28;;;;;;;54.80;26.30;;;;;;;6.27;88.76;98600.61;78164;1298;3050938;-64
2023/03/08 06:19:55;;;;;;;63.70;27.20;;;;;;;6.22;89.02;98601.23;79374;1295;3013046;-63
2023/03/08 06:22:22;;;;;;;61.90;31.40;;;;;;;6.17;89.31;98594.38;79372;1295;3013620;-62
2023/03/08 06:24:50;;;;;;;68.10;30.70;;;;;;;6.28;88.76;98582.60;78127;1301;3048774;-64
2023/03/08 06:27:26;;;;;;;64.40;29.80;;;;;;;6.06;89.32;98579.38;78171;1298;3052653;-62
2023/03/08 06:29:54;;;;;;;45.60;21.60;;;;;;;5.99;90.28;98575.37;79325;1298;3012989;-62
2023/03/08 06:32:21;;;;;;;46.90;20.40;;;;;;;6.49;89.36;98570.44;79685;1295;3012024;-62
2023/03/08 06:34:49;;;;;;;50.40;22.70;;;;;;;6.92;86.66;98569.14;78237;1294;3056404;-63
2023/03/08 06:37:17;;;;;;;58.70;25.20;;;;;;;7.00;85.99;98564.52;79465;1296;3012990;-65
2023/03/08 06:39:44;;;;;;;56.20;25.70;;;;;;;6.72;86.65;98567.55;79433;1298;3011997;-63
2023/03/08 06:42:13;;;;;;;56.70;27.70;;;;;;;6.65;87.70;98568.16;78082;1298;3053472;-62
2023/03/08 06:44:40;;;;;;;61.40;28.70;;;;;;;6.44;88.94;98567.63;79813;1298;3013553;-64
2023/03/08 06:47:06;;;;;;;58.80;28.20;;;;;;;6.41;89.14;98568.48;79272;1295;3011592;-63
2023/03/08 06:49:34;;;;;;;43.70;17.90;;;;;;;6.39;89.91;98567.77;77956;1300;3057313;-65
2023/03/08 06:52:01;;;;;;;38.90;17.90;;;;;;;6.69;89.90;98568.43;79592;1296;3013083;-65
2023/03/08 06:54:34;;;;;;;45.20;20.80;;;;;;;7.23;88.54;98569.57;78264;1298;3051147;-63
2023/03/08 06:57:03;;;;;;;43.90;20.50;;;;;;;7.17;87.17;98563.83;79359;1298;3013177;-62
2023/03/08 06:59:29;;;;;;;39.70;19.20;;;;;;;6.87;88.32;98564.04;79447;1295;3011558;-62
2023/03/08 07:01:57;;;;;;;42.40;20.30;;;;;;;6.97;88.44;98560.69;78326;1298;3051019;-63
2023/03/08 07:04:24;;;;;;;43.80;19.10;;;;;;;6.78;88.87;98561.80;79443;1296;3018932;-63
2023/03/08 07:06:51;;;;;;;48.00;21.80;;;;;;;6.66;89.84;98559.73;79511;1295;3011766;-61
2023/03/08 07:09:19;;;;;;;30.70;14.80;;;;;;;6.55;90.78;98560.38;78360;1301;3030052;-61
2023/03/08 07:11:45;;;;;;;32.10;14.90;;;;;;;6.95;90.31;98558.89;79645;1298;3012946;-61
2023/03/08 07:14:12;;;;;;;37.70;17.20;;;;;;;7.25;88.09;98555.32;79596;1298;3011499;-63
2023/03/08 07:16:40;;;;;;;43.00;18.00;;;;;;;7.33;87.43;98550.00;78191;1295;3028401;-64
2023/03/08 07:19:07;;;;;;;41.90;19.20;;;;;;;7.25;87.67;98543.16;79366;1298;3012879;-63
2023/03/08 07:21:43;;;;;;;42.40;20.90;;;;;;;7.12;87.98;98534.88;78029;1295;3053327;-62
2023/03/08 07:24:10;;;;;;;38.10;18.30;;;;;;;7.01;88.66;98534.84;79260;1298;3014537;-63
2023/03/08 07:26:37;;;;;;;40.30;19.10;;;;;;;6.99;89.00;98529.23;79393;1298;3013277;-69
2023/03/08 07:29:04;;;;;;;27.70;11.40;;;;;;;7.07;88.49;98529.41;78358;1295;3069215;-57
2023/03/08 07:31:34;;;;;;;26.10;12.40;;;;;;;7.60;88.12;98523.89;79433;1295;3020849;-55
2023/03/08 07:34:03;;;;;;;29.80;14.80;;;;;;;8.13;84.71;98528.54;78271;1295;3050565;-56
2023/03/08 07:36:31;;;;;;;31.40;15.60;;;;;;;7.89;84.47;98526.36;79352;1295;3013894;-56
2023/03/08 07:38:58;;;;;;;30.40;14.70;;;;;;;7.56;86.05;98520.33;79306;1298;3011786;-56
2023/03/08 07:41:30;;;;;;;30.80;14.90;;;;;;;7.61;86.56;98519.85;78079;1298;3052094;-56
2023/03/08 07:43:57;;;;;;;31.90;14.30;;;;;;;7.35;87.34;98526.49;79569;1294;3013925;-65
2023/03/08 07:46:29;;;;;;;33.40;14.10;;;;;;;7.15;88.73;98523.89;78200;1298;3052823;-64
2023/03/08 07:48:56;;;;;;;17.10;8.40;;;;;;;6.88;90.53;98523.48;79303;1295;3013034;-62
2023/03/08 07:51:22;;;;;;;23.80;10.30;;;;;;;7.48;89.98;98521.98;79268;1295;3013814;-61
2023/03/08 07:53:51;;;;;;;24.00;10.80;;;;;;;8.03;86.61;98527.42;78060;1295;3028544;-61
2023/03/08 07:56:17;;;;;;;23.00;10.50;;;;;;;7.71;87.25;98523.02;79318;1298;3013858;-63
2023/03/08 07:58:44;;;;;;;25.90;11.70;;;;;;;7.76;87.49;98507.53;79540;1295;3011784;-59
2023/03/08 08:01:13;;;;;;;23.40;12.20;;;;;;;7.60;88.12;98511.38;78325;1298;3051456;-62
2023/03/08 08:03:40;;;;;;;23.70;11.10;;;;;;;7.33;89.85;98506.73;79553;1295;3013110;-61
2023/03/08 08:06:06;;;;;;;17.30;8.00;;;;;;;7.43;90.09;98502.52;79235;1295;3013569;-65
2023/03/08 08:08:34;;;;;;;18.00;8.50;;;;;;;7.81;89.19;98507.56;78259;1295;3026488;-63
2023/03/08 08:11:09;;;;;;;21.40;9.60;;;;;;;8.07;87.44;98509.88;79726;1300;3013995;-63
2023/03/08 08:13:39;;;;;;;24.10;10.50;;;;;;;8.31;86.72;98506.05;78321;1295;3069507;-63
2023/03/08 08:16:06;;;;;;;25.70;11.60;;;;;;;8.06;87.13;98504.52;79744;1294;3013092;-62
2023/03/08 08:18:40;;;;;;;23.00;12.30;;;;;;;7.72;89.01;98511.45;78136;1298;3050962;-63
2023/03/08 08:21:09;;;;;;;27.00;12.50;;;;;;;7.56;90.50;98511.59;79308;1301;3011457;-63
2023/03/08 08:23:35;;;;;;;16.80;7.60;;;;;;;7.49;90.88;98512.23;79273;1295;3011782;-62
2023/03/08 08:26:05;;;;;;;19.50;8.20;;;;;;;8.03;90.27;98507.05;78142;1298;3053778;-63
2023/03/08 08:28:33;;;;;;;22.20;10.10;;;;;;;8.39;87.52;98502.77;79416;1295;3012021;-62
2023/03/08 08:31:05;;;;;;;25.40;10.50;;;;;;;8.31;87.28;98509.71;78943;1295;3013512;-64
2023/03/08 08:33:33;;;;;;;22.30;10.60;;;;;;;8.25;87.69;98504.89;79598;1295;3011665;-65
2023/03/08 08:36:06;;;;;;;23.20;11.20;;;;;;;7.95;88.68;98517.12;79094;1296;3011569;-63
2023/03/08 08:38:33;;;;;;;25.60;11.90;;;;;;;7.81;89.86;98505.98;79411;1295;3011607;-62
2023/03/08 08:41:02;;;;;;;19.90;8.80;;;;;;;7.66;90.81;98512.34;78197;1295;3051540;-63
2023/03/08 08:43:30;;;;;;;19.20;9.00;;;;;;;8.03;90.71;98516.42;79501;1295;3011712;-63
2023/03/08 08:45:57;;;;;;;24.00;10.30;;;;;;;8.37;88.30;98511.95;79564;1295;3011555;-61
2023/03/08 08:48:25;;;;;;;27.00;12.70;;;;;;;8.38;87.88;98506.11;78219;1296;3051473;-65
2023/03/08 08:50:52;;;;;;;23.30;11.30;;;;;;;8.22;88.57;98503.18;79487;1295;3018444;-67
2023/03/08 08:53:19;;;;;;;25.20;12.80;;;;;;;8.37;87.77;98502.71;81759;1295;3011650;-58
2023/03/08 08:55:46;;;;;;;26.40;12.10;;;;;;;8.01;89.44;98495.66;78718;1295;3028906;-64
2023/03/08 08:58:14;;;;;;;19.40;8.60;;;;;;;8.21;89.13;98483.19;79236;1298;3014495;-65
2023/03/08 09:00:40;;;;;;;22.60;10.00;;;;;;;8.84;87.46;98485.05;81980;1295;3011083;-65
2023/03/08 09:03:08;;;;;;;23.40;11.20;;;;;;;9.04;84.97;98486.17;80777;1295;3051031;-64
2023/03/08 09:05:41;;;;;;;23.70;11.80;;;;;;;8.90;85.26;98493.77;80195;1295;3012699;-62
2023/03/08 09:08:09;;;;;;;25.20;11.20;;;;;;;9.00;85.20;98483.42;78206;1295;3054362;-61
2023/03/08 09:10:37;;;;;;;25.70;12.00;;;;;;;8.76;85.93;98488.75;79190;1298;3013397;-62
2023/03/08 09:13:04;;;;;;;29.50;12.00;;;;;;;8.63;86.97;98486.86;79465;1298;3011868;-65
2023/03/08 09:15:34;;;;;;;19.70;10.10;;;;;;;8.59;86.63;98482.59;78311;1295;3069436;-63
2023/03/08 09:18:03;;;;;;;16.20;6.90;;;;;;;8.68;86.51;98485.45;79533;1296;3012249;-63
2023/03/08 09:20:38;;;;;;;17.70;9.00;;;;;;;9.19;84.83;98488.20;78168;1295;3057096;-63
2023/03/08 09:23:05;;;;;;;21.00;9.80;;;;;;;9.41;83.89;98492.44;79508;1294;3012853;-63
2023/03/08 09:25:32;;;;;;;18.50;10.00;;;;;;;9.29;83.54;98496.98;79500;1295;3011681;-61
2023/03/08 09:28:02;;;;;;;19.90;10.00;;;;;;;9.26;83.00;98497.34;78317;1295;3052481;-63
2023/03/08 09:30:31;;;;;;;19.50;9.10;;;;;;;9.17;83.22;98501.63;79326;1298;3012846;-62
2023/03/08 09:33:02;;;;;;;17.80;8.90;;;;;;;9.21;83.35;98499.45;78199;1298;3052182;-62
2023/03/08 09:35:29;;;;;;;18.20;9.80;;;;;;;9.14;83.70;98494.82;79524;1295;3013940;-64
2023/03/08 09:37:57;;;;;;;15.50;6.80;;;;;;;9.04;84.38;98500.08;79622;1294;3013297;-62
2023/03/08 09:40:25;;;;;;;15.70;6.80;;;;;;;9.69;82.23;98486.46;78151;1298;3049284;-59
2023/03/08 09:42:52;;;;;;;14.70;8.10;;;;;;;10.03;79.90;98495.85;79485;1301;3013039;-65
2023/03/08 09:45:27;;;;;;;14.10;7.50;;;;;;;9.90;80.38;98484.92;78123;1300;3069266;-62
2023/03/08 09:48:07;;;;;;;17.50;8.80;;;;;;;9.83;80.76;98478.98;79504;1296;3011454;-64
2023/03/08 09:50:44;;;;;;;22.20;8.20;;;;;;;9.93;80.63;98473.98;78165;1298;3058318;-65
2023/03/08 09:53:34;;;;;;;13.10;8.50;;;;;;;9.79;80.95;98473.63;78225;1296;3051030;-62
2023/03/08 09:56:04;;;;;;;13.70;8.10;;;;;;;9.72;81.13;98469.59;78006;1301;3054310;-62
2023/03/08 09:58:53;;;;;;;23.30;8.70;;;;;;;9.72;81.54;98462.42;79479;1298;3011912;-61
2023/03/08 10:01:41;;;;;;;8.40;5.40;;;;;;;9.84;81.65;98457.34;78223;1298;3052803;-63
2023/03/08 10:04:30;;;;;;;11.10;5.80;;;;;;;10.48;79.58;98452.73;78171;1301;3053613;-61
2023/03/08 10:07:18;;;;;;;9.90;6.10;;;;;;;10.80;77.82;98444.58;78228;1298;3070143;-63
2023/03/08 10:09:59;;;;;;;14.30;7.10;;;;;;;10.73;77.76;98441.63;78069;1295;3051875;-60
2023/03/08 10:12:28;;;;;;;14.60;7.10;;;;;;;10.60;78.37;98440.00;78088;1295;3057577;-62
2023/03/08 10:15:04;;;;;;;15.80;7.40;;;;;;;10.58;78.33;98442.58;79336;1295;3013082;-64
2023/03/08 10:17:51;;;;;;;14.10;7.20;;;;;;;10.59;78.82;98437.09;78045;1298;3051559;-65
2023/03/08 10:20:23;;;;;;;16.20;7.70;;;;;;;10.56;78.27;98431.02;78039;1295;3053840;-63
2023/03/08 10:23:02;;;;;;;18.20;7.40;;;;;;;10.66;78.14;98427.77;77995;1301;3052300;-62
2023/03/08 10:25:32;;;;;;;9.10;4.90;;;;;;;10.65;78.38;98425.60;78023;1298;3069704;-60
2023/03/08 10:28:01;;;;;;;11.60;5.00;;;;;;;11.42;76.54;98414.77;79326;1296;3011649;-67
2023/03/08 10:30:34;;;;;;;16.70;6.40;;;;;;;11.86;74.14;98411.94;79172;1295;3027138;-63
2023/03/08 10:33:07;;;;;;;23.10;9.40;;;;;;;12.11;73.28;98414.10;79462;1295;3011893;-63
2023/03/08 10:35:37;;;;;;;21.50;8.10;;;;;;;12.04;72.60;98414.35;78121;1295;3055969;-61
2023/03/08 10:38:04;;;;;;;21.50;8.60;;;;;;;11.72;73.07;98410.08;79459;1298;3012843;-62
2023/03/08 10:40:32;;;;;;;23.30;8.20;;;;;;;11.51;73.57;98413.05;78171;1298;3029300;-64
2023/03/08 10:43:02;;;;;;;31.40;9.30;;;;;;;11.69;73.31;98399.11;79416;1298;3012821;-61
2023/03/08 10:45:32;;;;;;;13.40;6.30;;;;;;;11.71;73.01;98412.95;78737;1300;3011746;-61
2023/03/08 10:48:00;;;;;;;15.20;7.40;;;;;;;11.46;73.79;98408.02;79225;1294;3013307;-64
2023/03/08 10:50:31;;;;;;;17.60;7.30;;;;;;;11.57;73.79;98398.67;78393;1295;3049520;-64
2023/03/08 10:53:09;;;;;;;13.50;6.20;;;;;;;11.43;74.36;98402.42;79470;1295;3011561;-64
2023/03/08 10:55:42;;;;;;;11.90;6.60;;;;;;;11.41;74.07;98403.63;78125;1298;3050178;-61
2023/03/08 10:58:36;;;;;;;14.00;6.30;;;;;;;11.49;74.09;98403.91;79289;1295;3011448;-64
2023/03/08 11:01:04;;;;;;;10.70;5.30;;;;;;;11.69;71.90;98405.45;78247;1301;3053339;-63
2023/03/08 11:03:33;;;;;;;12.50;5.70;;;;;;;11.95;70.45;98393.66;79317;1298;3013282;-60
2023/03/08 11:06:12;;;;;;;10.30;5.50;;;;;;;11.83;69.69;98398.83;78966;1295;3013848;-61
2023/03/08 11:08:55;;;;;;;9.90;5.20;;;;;;;11.78;69.56;98400.86;78265;1296;3056348;-61
2023/03/08 11:11:23;;;;;;;12.10;6.70;;;;;;;11.71;69.51;98390.04;78275;1298;3049805;-62
2023/03/08 11:13:51;;;;;;;11.60;5.90;;;;;;;11.80;69.08;98391.85;79483;1295;3013451;-64
2023/03/08 11:16:54;;;;;;;12.20;6.20;;;;;;;11.90;67.82;98395.65;79447;1295;3013684;-63
2023/03/08 11:19:31;;;;;;;8.10;5.10;;;;;;;11.89;66.75;98392.55;78032;1301;3054116;-64
2023/03/08 11:22:44;;;;;;;13.30;6.20;;;;;;;11.96;65.70;98399.35;78181;1296;3069664;-63
2023/03/08 11:25:34;;;;;;;13.80;5.70;;;;;;;12.16;65.01;98383.71;77522;1307;3051503;-60
2023/03/08 11:28:27;;;;;;;11.30;5.00;;;;;;;12.22;62.76;98406.66;77658;1303;3057576;-62
2023/03/08 11:31:02;;;;;;;11.30;5.40;;;;;;;12.28;62.42;98404.28;77979;1300;3050970;-63
2023/03/08 11:33:49;;;;;;;9.80;5.80;;;;;;;12.11;62.83;98397.77;78197;1295;3052764;-61
2023/03/08 11:36:20;;;;;;;13.80;5.00;;;;;;;12.11;63.38;98403.53;78179;1298;3051979;-63
2023/03/08 11:38:57;;;;;;;11.70;6.30;;;;;;;12.28;62.95;98402.86;79418;1298;3012578;-65
2023/03/08 11:41:40;;;;;;;16.70;7.20;;;;;;;12.41;62.34;98405.07;77940;1301;3053849;-63
2023/03/08 11:44:11;;;;;;;11.00;6.30;;;;;;;12.49;61.99;98408.92;78194;1295;3070681;-63
2023/03/08 11:47:00;;;;;;;11.20;5.70;;;;;;;12.42;61.94;98396.75;79439;1298;3013331;-61
2023/03/08 11:50:04;;;;;;;12.50;6.30;;;;;;;12.59;61.53;98394.05;78147;1299;3058240;-62
2023/03/08 11:52:56;;;;;;;10.30;5.70;;;;;;;12.64;60.70;98400.15;78152;1298;3050544;-61
2023/03/08 11:55:46;;;;;;;11.00;5.40;;;;;;;12.82;60.62;98391.04;77765;1295;3053784;-64
2023/03/08 11:58:38;;;;;;;13.20;6.40;;;;;;;12.97;59.73;98389.41;78251;1298;3050921;-64
2023/03/08 12:01:30;;;;;;;14.00;5.10;;;;;;;13.11;59.21;98392.17;78258;1298;3053613;-62
2023/03/08 12:04:11;;;;;;;9.10;5.30;;;;;;;12.92;59.05;98385.99;78199;1295;3052754;-61
2023/03/08 12:06:41;;;;;;;11.40;6.10;;;;;;;13.07;59.65;98385.55;78031;1300;3069292;-64
2023/03/08 12:09:09;;;;;;;9.90;5.10;;;;;;;13.06;59.35;98377.37;79377;1301;3012773;-64
2023/03/08 12:12:02;;;;;;;10.00;5.00;;;;;;;13.01;60.04;98381.15;78906;1296;3011544;-64
2023/03/08 12:14:46;;;;;;;10.70;6.70;;;;;;;12.94;61.15;98373.67;78060;1295;3050516;-62
2023/03/08 12:17:45;;;;;;;11.50;6.10;;;;;;;13.08;61.19;98369.95;78213;1298;3054320;-68
2023/03/08 12:20:14;;;;;;;14.30;5.80;;;;;;;12.92;61.78;98369.48;78475;1300;3050898;-65
2023/03/08 12:22:46;;;;;;;12.00;6.80;;;;;;;12.99;61.44;98365.14;79512;1298;3012974;-63
2023/03/08 12:25:28;;;;;;;11.60;6.60;;;;;;;13.16;60.80;98379.30;78685;1298;3068817;-62
2023/03/08 12:28:16;;;;;;;13.90;6.70;;;;;;;13.18;60.02;98363.86;78040;1295;3051149;-62
2023/03/08 12:30:53;;;;;;;15.30;6.00;;;;;;;13.08;60.78;98375.77;78178;1296;3058058;-62
2023/03/08 12:33:21;;;;;;;13.80;6.60;;;;;;;13.00;61.27;98363.30;77981;1300;3050766;-63
2023/03/08 12:35:58;;;;;;;13.50;5.30;;;;;;;13.11;61.21;98374.44;79217;1296;3013220;-61
2023/03/08 12:38:41;;;;;;;8.70;5.30;;;;;;;13.10;61.15;98371.73;78119;1300;3052177;-63
2023/03/08 12:41:21;;;;;;;17.20;5.70;;;;;;;13.10;61.37;98368.42;78059;1299;3053900;-63
2023/03/08 12:44:21;;;;;;;10.80;5.90;;;;;;;13.16;61.30;98368.90;77965;1301;3069544;-61
2023/03/08 12:46:57;;;;;;;9.70;5.80;;;;;;;13.31;60.78;98373.55;77960;1295;3053060;-63
2023/03/08 12:49:35;;;;;;;7.70;4.70;;;;;;;13.44;60.67;98367.15;79242;1296;3013016;-63
2023/03/08 12:52:22;;;;;;;11.90;5.20;;;;;;;13.51;59.76;98365.01;77968;1304;3050164;-61
2023/03/08 12:54:56;;;;;;;10.30;5.40;;;;;;;13.70;59.28;98361.87;78061;1301;3054665;-62
2023/03/08 12:57:25;;;;;;;13.00;5.10;;;;;;;13.64;58.80;98365.52;79345;1295;3011687;-62
2023/03/08 12:59:58;;;;;;;7.80;4.40;;;;;;;13.73;56.41;98375.65;78123;1299;3052468;-63
2023/03/08 13:02:30;;;;;;;9.40;5.10;;;;;;;13.77;52.80;98371.20;79447;1301;3011602;-64
2023/03/08 13:05:19;;;;;;;10.90;4.30;;;;;;;13.63;50.86;98380.57;78075;1300;3069384;-63
2023/03/08 13:08:11;;;;;;;11.40;4.40;;;;;;;13.77;50.48;98371.05;77993;1299;3050958;-62
2023/03/08 13:10:54;;;;;;;11.40;4.50;;;;;;;13.84;49.64;98379.89;77965;1300;3058003;-63
2023/03/08 13:13:43;;;;;;;10.10;4.50;;;;;;;13.75;49.61;98370.89;77988;1301;3050170;-61
2023/03/08 13:16:14;;;;;;;8.90;3.80;;;;;;;13.62;50.04;98374.17;77968;1300;3054072;-62
2023/03/08 13:18:42;;;;;;;10.10;4.40;;;;;;;13.50;49.87;98371.04;79278;1301;3012701;-61
2023/03/08 13:21:19;;;;;;;6.40;4.30;;;;;;;13.51;50.42;98376.80;78118;1301;3052290;-62
2023/03/08 13:23:56;;;;;;;7.40;4.30;;;;;;;13.48;50.57;98373.38;78013;1301;3052947;-60
2023/03/08 13:26:45;;;;;;;11.50;4.20;;;;;;;13.70;50.44;98358.70;79327;1295;3011746;-60
2023/03/08 13:29:14;;;;;;;8.70;4.60;;;;;;;13.70;49.23;98366.81;78063;1304;3052395;-62
2023/03/08 13:31:42;;;;;;;7.50;3.70;;;;;;;13.69;49.22;98369.73;79330;1295;3011545;-63
2023/03/08 13:34:32;;;;;;;9.70;4.10;;;;;;;13.68;49.05;98360.08;78057;1301;3025956;-62
2023/03/08 13:37:01;;;;;;;7.60;4.10;;;;;;;13.69;49.05;98361.20;78043;1301;3053814;-62
2023/03/08 13:39:29;;;;;;;14.10;5.20;;;;;;;13.72;49.44;98362.86;79180;1301;3021042;-63
2023/03/08 13:42:09;;;;;;;11.90;5.30;;;;;;;13.70;49.31;98355.34;79219;1301;3013626;-60
2023/03/08 13:44:37;;;;;;;16.40;6.40;;;;;;;13.65;49.64;98352.28;78016;1295;3070019;-62
2023/03/08 13:47:20;;;;;;;13.40;7.10;;;;;;;13.59;49.97;98347.67;79200;1295;3012937;-65
2023/03/08 13:49:49;;;;;;;13.20;5.30;;;;;;;13.62;49.63;98342.89;78060;1299;3049702;-62
2023/03/08 13:52:19;;;;;;;10.00;4.90;;;;;;;13.67;49.19;98348.61;79467;1301;3012125;-62
2023/03/08 13:54:56;;;;;;;9.80;4.60;;;;;;;13.54;49.50;98349.59;78216;1301;3052966;-63
2023/03/08 13:57:27;;;;;;;9.50;5.40;;;;;;;13.54;49.72;98345.34;81086;1301;3011448;-62
2023/03/08 13:59:59;;;;;;;12.20;4.40;;;;;;;13.47;49.80;98353.15;77891;1301;3069090;-62
2023/03/08 14:02:28;;;;;;;10.50;4.00;;;;;;;13.31;49.05;98351.22;79270;1295;3012795;-61
2023/03/08 14:04:56;;;;;;;12.70;5.20;;;;;;;13.36;49.05;98347.32;77951;1301;3025895;-61
2023/03/08 14:07:26;;;;;;;10.20;4.60;;;;;;;13.27;48.95;98343.82;79384;1300;3013416;-62
2023/03/08 14:09:55;;;;;;;8.70;5.00;;;;;;;13.25;48.87;98347.95;77976;1298;3051385;-61
2023/03/08 14:12:24;;;;;;;8.90;4.40;;;;;;;13.23;48.69;98341.04;79408;1298;3012714;-64
2023/03/08 14:14:55;;;;;;;10.40;4.80;;;;;;;13.26;48.60;98340.48;78743;1301;3013643;-61
2023/03/08 14:17:25;;;;;;;7.00;3.90;;;;;;;13.18;48.79;98342.77;79176;1301;3013252;-67
2023/03/08 14:19:59;;;;;;;9.50;4.50;;;;;;;13.22;48.76;98337.75;78013;1296;3052038;-61
2023/03/08 14:22:27;;;;;;;7.90;4.90;;;;;;;13.07;48.47;98338.39;79433;1300;3012571;-62
2023/03/08 14:24:59;;;;;;;10.10;5.00;;;;;;;13.11;49.01;98340.33;77944;1301;3050173;-63
2023/03/08 14:27:35;;;;;;;10.00;4.10;;;;;;;13.09;49.30;98338.20;79170;1296;3011846;-61
2023/03/08 14:30:19;;;;;;;8.20;3.90;;;;;;;13.08;48.92;98339.95;78063;1301;3050817;-63
2023/03/08 14:33:17;;;;;;;9.40;3.80;;;;;;;13.00;48.97;98337.31;78131;1301;3052615;-63
2023/03/08 14:35:54;;;;;;;6.90;4.10;;;;;;;13.05;49.25;98340.73;77965;1301;3052867;-63
2023/03/08 14:38:27;;;;;;;9.50;4.30;;;;;;;12.95;49.32;98334.41;78073;1301;3069052;-61
2023/03/08 14:40:54;;;;;;;10.50;4.20;;;;;;;12.94;49.61;98335.68;79314;1300;3011824;-61
2023/03/08 14:43:23;;;;;;;8.60;4.10;;;;;;;12.88;49.75;98335.16;78001;1302;3055958;-64
2023/03/08 14:46:04;;;;;;;12.40;4.70;;;;;;;12.86;50.07;98331.87;79306;1295;3013247;-63
2023/03/08 14:48:33;;;;;;;8.50;4.60;;;;;;;12.91;50.19;98331.34;78032;1301;3053542;-63
2023/03/08 14:51:04;;;;;;;8.90;4.00;;;;;;;12.88;50.33;98329.77;79354;1300;3014174;-62
2023/03/08 14:53:39;;;;;;;10.40;4.40;;;;;;;12.86;50.04;98328.98;78174;1301;3054401;-61
2023/03/08 14:56:14;;;;;;;10.10;4.60;;;;;;;12.81;50.09;98326.48;79288;1301;3013477;-62
2023/03/08 14:58:47;;;;;;;6.90;3.80;;;;;;;12.74;50.55;98327.42;78194;1297;3069652;-61
2023/03/08 15:01:23;;;;;;;7.60;4.10;;;;;;;12.79;50.75;98323.30;78889;1300;3012621;-64
2023/03/08 15:03:50;;;;;;;8.20;4.00;;;;;;;12.77;50.62;98325.02;79148;1299;3011561;-63
2023/03/08 15:06:21;;;;;;;10.70;4.20;;;;;;;12.71;50.32;98326.14;78106;1300;3058615;-63
2023/03/08 15:08:48;;;;;;;8.10;4.60;;;;;;;12.59;51.02;98326.98;79465;1296;3013207;-64
2023/03/08 15:11:14;;;;;;;8.70;4.10;;;;;;;12.50;51.28;98325.52;79155;1296;3011582;-62
2023/03/08 15:13:44;;;;;;;11.20;5.50;;;;;;;12.55;51.32;98327.67;78125;1301;3052408;-64
2023/03/08 15:16:12;;;;;;;12.30;5.70;;;;;;;12.52;51.62;98327.08;79314;1299;3011734;-63
2023/03/08 15:18:42;;;;;;;14.50;5.70;;;;;;;12.45;51.92;98326.41;78803;1301;3011456;-63
2023/03/08 15:21:13;;;;;;;8.50;5.10;;;;;;;12.39;51.87;98325.23;79310;1295;3011630;-64
2023/03/08 15:23:46;;;;;;;10.10;5.70;;;;;;;12.36;52.15;98323.30;78028;1299;3050205;-62
2023/03/08 15:26:15;;;;;;;17.20;8.40;;;;;;;12.33;52.26;98323.82;79263;1300;3011563;-63
2023/03/08 15:28:44;;;;;;;11.00;6.20;;;;;;;12.31;52.50;98327.08;78660;1295;3013637;-62
2023/03/08 15:31:11;;;;;;;11.20;6.30;;;;;;;12.24;52.80;98329.76;79308;1300;3019010;-63
2023/03/08 15:33:39;;;;;;;12.10;7.20;;;;;;;12.20;52.80;98335.10;79250;1300;3011805;-62
2023/03/08 15:36:15;;;;;;;11.60;6.50;;;;;;;12.08;53.30;98329.73;78095;1302;3054151;-63
2023/03/08 15:38:43;;;;;;;14.40;7.10;;;;;;;12.10;53.29;98328.30;78279;1295;3057791;-63
2023/03/08 15:41:13;;;;;;;16.00;7.20;;;;;;;12.09;53.29;98331.27;79156;1301;3013814;-64
2023/03/08 15:43:41;;;;;;;14.60;7.40;;;;;;;12.08;53.23;98331.71;78208;1299;3049895;-62
2023/03/08 15:46:12;;;;;;;12.60;7.10;;;;;;;12.09;53.27;98330.91;79317;1301;3019323;-65
2023/03/08 15:48:41;;;;;;;11.20;5.90;;;;;;;12.09;53.28;98331.61;78075;1301;3069565;-68
2023/03/08 15:51:17;;;;;;;20.20;6.80;;;;;;;12.07;52.59;98333.36;79143;1298;3018950;-63
2023/03/08 15:53:46;;;;;;;11.10;6.70;;;;;;;12.07;52.82;98334.39;77996;1295;3050747;-62
2023/03/08 15:56:13;;;;;;;13.90;6.80;;;;;;;12.06;52.68;98336.94;79506;1295;3015370;-62
2023/03/08 15:58:44;;;;;;;21.40;10.50;;;;;;;12.04;53.13;98338.67;78850;1301;3011781;-63
2023/03/08 16:01:11;;;;;;;28.40;12.10;;;;;;;11.91;53.97;98337.44;79284;1301;3019016;-62
2023/03/08 16:03:37;;;;;;;19.70;9.60;;;;;;;11.89;54.39;98335.51;79313;1300;3011811;-62